Time;durP1;ratioP1;P1;durP2;ratioP2;P2;SDS_P1;SDS_P2;PMS_P1;PMS_P2;Temp;Humidity;BMP_temperature;BMP_pressure;BME280_temperature;BME280_humidity;BME280_pressure;Samples;Min_cycle;Max_cycle;Signal;HPM_P1;HPM_P2
2021/09/28 00:01:34;;;;;;;14.38;4.32;;;;;;;;;;5022891;28;20472;-66
2021/09/28 00:04:00;;;;;;;9.65;3.97;;;;;;;;;;5024726;28;20458;-66
2021/09/28 00:06:26;;;;;;;7.13;3.45;;;;;;;;;;5021696;28;20049;-66
2021/09/28 00:08:52;;;;;;;14.57;4.70;;;;;;;;;;5026775;28;20482;-66
2021/09/28 00:11:18;;;;;;;12.65;3.90;;;;;;;;;;5023101;28;20389;-66
2021/09/28 00:13:44;;;;;;;18.75;3.92;;;;;;;;;;5021026;28;20034;-66
2021/09/28 00:16:11;;;;;;;7.50;3.70;;;;;;;;;;5024150;28;20124;-66
2021/09/28 00:18:37;;;;;;;12.30;3.75;;;;;;;;;;5018700;28;20053;-66
2021/09/28 00:21:03;;;;;;;11.70;3.72;;;;;;;;;;5024399;28;20060;-66
2021/09/28 00:23:30;;;;;;;11.93;4.50;;;;;;;;;;5019279;28;20412;-66
2021/09/28 00:25:56;;;;;;;10.35;3.78;;;;;;;;;;5020876;28;20094;-66
2021/09/28 00:28:24;;;;;;;9.73;3.95;;;;;;;;;;5021874;28;20049;-66
2021/09/28 00:30:51;;;;;;;14.18;4.40;;;;;;;;;;5022262;28;20123;-66
2021/09/28 00:33:17;;;;;;;10.27;4.28;;;;;;;;;;5021904;28;20444;-66
2021/09/28 00:35:44;;;;;;;11.60;4.53;;;;;;;;;;5026005;28;20042;-66
2021/09/28 00:38:10;;;;;;;10.85;4.72;;;;;;;;;;5026316;28;20042;-66
2021/09/28 00:40:36;;;;;;;10.88;4.55;;;;;;;;;;5024992;28;20530;-66
2021/09/28 00:43:02;;;;;;;12.95;5.07;;;;;;;;;;5026253;28;20037;-66
2021/09/28 00:45:29;;;;;;;11.60;4.97;;;;;;;;;;5026031;28;20045;-66
2021/09/28 00:47:55;;;;;;;15.90;4.82;;;;;;;;;;5026999;28;20037;-66
2021/09/28 00:50:21;;;;;;;13.25;4.43;;;;;;;;;;5025931;28;20116;-66
2021/09/28 00:52:48;;;;;;;11.60;5.00;;;;;;;;;;5028305;28;20053;-66
2021/09/28 00:55:16;;;;;;;11.32;4.85;;;;;;;;;;5030531;28;20087;-66
2021/09/28 00:57:42;;;;;;;9.90;4.68;;;;;;;;;;5049002;28;22255;-66
2021/09/28 01:00:09;;;;;;;13.68;5.07;;;;;;;;;;5045624;28;20424;-66
2021/09/28 01:02:37;;;;;;;10.75;4.88;;;;;;;;;;5045051;28;20048;-66
2021/09/28 01:05:04;;;;;;;8.35;4.68;;;;;;;;;;5048123;28;20045;-66
2021/09/28 01:07:31;;;;;;;14.27;4.85;;;;;;;;;;5048845;28;20051;-66
2021/09/28 01:09:58;;;;;;;12.07;5.00;;;;;;;;;;5025880;28;20083;-66
2021/09/28 01:12:24;;;;;;;10.07;5.35;;;;;;;;;;5046288;28;20389;-66
2021/09/28 01:14:50;;;;;;;9.88;5.55;;;;;;;;;;5046094;28;20040;-66
2021/09/28 01:17:17;;;;;;;10.20;5.30;;;;;;;;;;5045689;28;20437;-66
2021/09/28 01:19:43;;;;;;;11.23;5.22;;;;;;;;;;5031157;28;20055;-66
2021/09/28 01:22:12;;;;;;;12.85;5.57;;;;;;;;;;5027921;28;20200;-66
2021/09/28 01:24:38;;;;;;;12.63;5.85;;;;;;;;;;5024515;28;20502;-66
2021/09/28 01:27:04;;;;;;;15.13;6.22;;;;;;;;;;5028917;28;20097;-66
2021/09/28 01:29:31;;;;;;;16.83;6.78;;;;;;;;;;5046196;28;20119;-66
2021/09/28 01:31:57;;;;;;;14.10;6.60;;;;;;;;;;5030256;28;20063;-66
2021/09/28 01:34:24;;;;;;;12.02;7.13;;;;;;;;;;5044322;28;20037;-66
2021/09/28 01:36:50;;;;;;;13.50;6.70;;;;;;;;;;5043852;28;20064;-66
2021/09/28 01:39:17;;;;;;;12.82;7.53;;;;;;;;;;5044583;28;20094;-66
2021/09/28 01:41:43;;;;;;;15.95;5.93;;;;;;;;;;5045786;28;20183;-66
2021/09/28 01:44:11;;;;;;;13.63;6.13;;;;;;;;;;5044090;28;20049;-66
2021/09/28 01:46:38;;;;;;;15.95;6.53;;;;;;;;;;5048152;28;20041;-66
2021/09/28 01:49:05;;;;;;;13.65;6.95;;;;;;;;;;5046950;28;20496;-66
2021/09/28 01:51:31;;;;;;;13.68;7.25;;;;;;;;;;5048088;28;20089;-66
2021/09/28 01:53:57;;;;;;;13.25;7.75;;;;;;;;;;5048535;28;20128;-66
2021/09/28 01:56:25;;;;;;;13.45;7.88;;;;;;;;;;5045956;28;20137;-66
2021/09/28 01:58:51;;;;;;;15.88;8.40;;;;;;;;;;5047561;28;20056;-66
2021/09/28 02:01:18;;;;;;;12.20;9.20;;;;;;;;;;5044651;28;20090;-66
2021/09/28 02:03:44;;;;;;;12.00;9.00;;;;;;;;;;5030351;28;20040;-66
2021/09/28 02:06:10;;;;;;;17.63;9.57;;;;;;;;;;5045820;28;20551;-67
2021/09/28 02:08:36;;;;;;;19.83;10.38;;;;;;;;;;5014390;28;20112;-66
2021/09/28 02:11:03;;;;;;;19.90;10.05;;;;;;;;;;5046335;28;20044;-66
2021/09/28 02:13:29;;;;;;;14.90;10.77;;;;;;;;;;5047339;28;20072;-66
2021/09/28 02:15:56;;;;;;;22.90;11.40;;;;;;;;;;5030628;28;20074;-66
2021/09/28 02:18:22;;;;;;;14.30;9.18;;;;;;;;;;5047245;28;20162;-66
2021/09/28 02:20:48;;;;;;;13.68;8.57;;;;;;;;;;5047014;28;20064;-66
2021/09/28 02:23:14;;;;;;;16.33;8.45;;;;;;;;;;5028444;28;20041;-66
2021/09/28 02:25:40;;;;;;;18.45;10.20;;;;;;;;;;5042220;28;20052;-66
2021/09/28 02:28:06;;;;;;;19.35;10.40;;;;;;;;;;5045312;28;20036;-66
2021/09/28 02:30:33;;;;;;;13.85;10.32;;;;;;;;;;5046006;28;20052;-66
2021/09/28 02:32:59;;;;;;;26.00;11.18;;;;;;;;;;5027477;28;20056;-66
2021/09/28 02:35:25;;;;;;;14.38;9.48;;;;;;;;;;5045383;28;20052;-66
2021/09/28 02:37:51;;;;;;;17.23;10.27;;;;;;;;;;5044607;28;20041;-66
2021/09/28 02:40:18;;;;;;;15.50;10.43;;;;;;;;;;5029318;28;20688;-66
2021/09/28 02:42:44;;;;;;;22.00;11.43;;;;;;;;;;5045585;28;20451;-66
2021/09/28 02:45:10;;;;;;;16.63;11.23;;;;;;;;;;5044733;28;20163;-66
2021/09/28 02:47:37;;;;;;;15.63;10.68;;;;;;;;;;5028041;28;20131;-66
2021/09/28 02:50:03;;;;;;;17.15;9.77;;;;;;;;;;5028883;28;20059;-66
2021/09/28 02:52:30;;;;;;;20.20;11.48;;;;;;;;;;5044676;28;20047;-66
2021/09/28 02:54:56;;;;;;;21.23;12.60;;;;;;;;;;5043053;28;20079;-66
2021/09/28 02:57:22;;;;;;;21.05;12.82;;;;;;;;;;5026293;28;20146;-66
2021/09/28 02:59:48;;;;;;;18.98;12.68;;;;;;;;;;5027016;28;20065;-66
2021/09/28 03:02:14;;;;;;;27.50;13.32;;;;;;;;;;5046061;28;20037;-66
2021/09/28 03:04:41;;;;;;;20.33;12.73;;;;;;;;;;5027683;28;20147;-66
2021/09/28 03:07:07;;;;;;;21.35;11.68;;;;;;;;;;5047187;28;20040;-66
2021/09/28 03:09:33;;;;;;;18.95;11.85;;;;;;;;;;5028318;28;20182;-66
2021/09/28 03:11:59;;;;;;;21.17;11.98;;;;;;;;;;5046380;28;20037;-66
2021/09/28 03:14:27;;;;;;;24.52;12.85;;;;;;;;;;5028026;28;20053;-66
2021/09/28 03:16:53;;;;;;;21.08;13.95;;;;;;;;;;5042924;28;20053;-66
2021/09/28 03:19:20;;;;;;;29.52;16.58;;;;;;;;;;5043946;28;20049;-66
2021/09/28 03:21:47;;;;;;;29.13;16.95;;;;;;;;;;5043769;28;20481;-66
2021/09/28 03:24:13;;;;;;;22.23;15.50;;;;;;;;;;5047693;28;20435;-66
2021/09/28 03:26:39;;;;;;;26.98;16.67;;;;;;;;;;5025544;28;20203;-66
2021/09/28 03:29:06;;;;;;;24.70;16.98;;;;;;;;;;5043362;28;20366;-66
2021/09/28 03:31:32;;;;;;;31.10;19.33;;;;;;;;;;5044479;28;20044;-66
2021/09/28 03:33:58;;;;;;;26.58;18.80;;;;;;;;;;5041314;28;20045;-66
2021/09/28 03:36:24;;;;;;;22.80;16.55;;;;;;;;;;5027722;28;20116;-66
2021/09/28 03:38:50;;;;;;;26.50;15.88;;;;;;;;;;5045341;28;20052;-66
2021/09/28 03:41:17;;;;;;;28.13;15.48;;;;;;;;;;5040475;28;20183;-66
2021/09/28 03:43:43;;;;;;;23.20;15.50;;;;;;;;;;5010074;28;20362;-66
2021/09/28 03:46:09;;;;;;;23.45;13.88;;;;;;;;;;5045595;28;20044;-66
2021/09/28 03:48:35;;;;;;;22.00;14.02;;;;;;;;;;5046445;28;20037;-66
2021/09/28 03:51:01;;;;;;;23.92;14.15;;;;;;;;;;5009060;28;20049;-66
2021/09/28 03:53:27;;;;;;;21.70;12.52;;;;;;;;;;5044743;28;20486;-66
2021/09/28 03:55:54;;;;;;;17.50;12.02;;;;;;;;;;5043226;28;20060;-66
2021/09/28 03:58:20;;;;;;;18.33;12.10;;;;;;;;;;5026257;28;20043;-66
2021/09/28 04:00:46;;;;;;;27.27;13.55;;;;;;;;;;5042573;28;20053;-66
2021/09/28 04:03:12;;;;;;;26.45;14.35;;;;;;;;;;5013482;28;20507;-66
2021/09/28 04:05:39;;;;;;;25.45;14.35;;;;;;;;;;5046124;28;20048;-66
2021/09/28 04:08:05;;;;;;;25.45;14.43;;;;;;;;;;5026253;28;20132;-66
2021/09/28 04:10:35;;;;;;;24.17;14.88;;;;;;;;;;5045741;28;20048;-66
2021/09/28 04:13:01;;;;;;;27.90;14.52;;;;;;;;;;5042977;28;20107;-66
2021/09/28 04:15:27;;;;;;;25.70;14.18;;;;;;;;;;5042843;28;20044;-66
2021/09/28 04:17:53;;;;;;;19.60;13.68;;;;;;;;;;5044789;28;20040;-66
2021/09/28 04:20:20;;;;;;;23.58;13.30;;;;;;;;;;5028466;28;20512;-66
2021/09/28 04:22:46;;;;;;;26.50;14.57;;;;;;;;;;5039355;28;20048;-66
2021/09/28 04:25:13;;;;;;;23.90;13.60;;;;;;;;;;5038678;28;20053;-66
2021/09/28 04:27:39;;;;;;;24.35;13.10;;;;;;;;;;5026587;28;20057;-66
2021/09/28 04:30:06;;;;;;;21.63;11.68;;;;;;;;;;5027670;28;20045;-66
2021/09/28 04:32:32;;;;;;;24.45;12.07;;;;;;;;;;5023605;28;20135;-66
2021/09/28 04:34:58;;;;;;;23.05;11.73;;;;;;;;;;5044842;28;20033;-66
2021/09/28 04:37:25;;;;;;;23.70;13.15;;;;;;;;;;5025240;28;20068;-66
2021/09/28 04:39:51;;;;;;;25.10;13.35;;;;;;;;;;5027354;28;20044;-66
2021/09/28 04:42:17;;;;;;;32.72;14.70;;;;;;;;;;5042120;28;20488;-66
2021/09/28 04:44:44;;;;;;;26.98;13.15;;;;;;;;;;5024309;28;20045;-66
2021/09/28 04:47:10;;;;;;;23.95;12.98;;;;;;;;;;5043241;28;20405;-66
2021/09/28 04:49:36;;;;;;;22.23;13.10;;;;;;;;;;5045121;28;20075;-65
2021/09/28 04:52:03;;;;;;;24.15;15.05;;;;;;;;;;5026246;28;20099;-65
2021/09/28 04:54:29;;;;;;;22.45;13.95;;;;;;;;;;5029270;28;20389;-66
2021/09/28 04:56:55;;;;;;;27.33;14.65;;;;;;;;;;5024754;28;20054;-65
2021/09/28 04:59:21;;;;;;;33.22;17.00;;;;;;;;;;5023833;28;20045;-66
2021/09/28 05:01:48;;;;;;;35.63;18.02;;;;;;;;;;5024824;28;20514;-66
2021/09/28 05:04:14;;;;;;;27.38;16.58;;;;;;;;;;5020847;28;20049;-65
2021/09/28 05:06:41;;;;;;;28.27;16.10;;;;;;;;;;5021060;28;20067;-65
2021/09/28 05:09:07;;;;;;;28.67;15.18;;;;;;;;;;5019070;28;20114;-65
2021/09/28 05:11:33;;;;;;;37.00;15.23;;;;;;;;;;5023647;28;20042;-65
2021/09/28 05:14:00;;;;;;;31.52;15.15;;;;;;;;;;5023957;28;20053;-65
2021/09/28 05:16:27;;;;;;;24.30;14.60;;;;;;;;;;5019150;28;20049;-65
2021/09/28 05:18:53;;;;;;;28.27;15.43;;;;;;;;;;5020781;28;20075;-65
2021/09/28 05:21:19;;;;;;;28.40;15.25;;;;;;;;;;5021892;28;20037;-65
2021/09/28 05:23:46;;;;;;;24.67;14.05;;;;;;;;;;5022978;28;20048;-73
2021/09/28 05:26:13;;;;;;;26.50;14.25;;;;;;;;;;5026091;28;20420;-66
2021/09/28 05:28:40;;;;;;;26.80;13.93;;;;;;;;;;5020827;28;20045;-66
2021/09/28 05:31:06;;;;;;;30.23;13.88;;;;;;;;;;5023759;28;20037;-66
2021/09/28 05:33:32;;;;;;;31.45;14.70;;;;;;;;;;5026674;28;20103;-67
2021/09/28 05:35:58;;;;;;;31.25;14.15;;;;;;;;;;5021625;28;20045;-68
2021/09/28 05:38:25;;;;;;;28.67;13.75;;;;;;;;;;5023475;28;20037;-66
2021/09/28 05:40:51;;;;;;;30.20;15.00;;;;;;;;;;5028261;28;20396;-66
2021/09/28 05:43:17;;;;;;;27.73;14.60;;;;;;;;;;5031805;28;20048;-66
2021/09/28 05:45:43;;;;;;;33.95;16.40;;;;;;;;;;5022547;28;20108;-66
2021/09/28 05:48:10;;;;;;;42.03;16.98;;;;;;;;;;5025866;28;20034;-66
2021/09/28 05:50:37;;;;;;;31.27;18.52;;;;;;;;;;5029009;28;20060;-66
2021/09/28 05:53:08;;;;;;;43.40;17.77;;;;;;;;;;5032027;28;20042;-66
2021/09/28 05:55:34;;;;;;;42.72;18.80;;;;;;;;;;5029157;28;20342;-66
2021/09/28 05:58:00;;;;;;;41.90;19.45;;;;;;;;;;5030050;28;20059;-66
2021/09/28 06:00:27;;;;;;;45.50;18.73;;;;;;;;;;5022433;28;20104;-66
2021/09/28 06:02:53;;;;;;;41.58;18.38;;;;;;;;;;5019618;28;20107;-66
2021/09/28 06:05:20;;;;;;;42.47;18.58;;;;;;;;;;5023082;28;20047;-66
2021/09/28 06:07:47;;;;;;;31.20;17.35;;;;;;;;;;5025246;28;20128;-66
2021/09/28 06:10:13;;;;;;;41.22;16.75;;;;;;;;;;5019480;28;20077;-66
2021/09/28 06:12:40;;;;;;;40.10;18.20;;;;;;;;;;5024340;28;20437;-66
2021/09/28 06:15:06;;;;;;;33.05;16.90;;;;;;;;;;5032860;28;20037;-67
2021/09/28 06:17:33;;;;;;;42.97;18.58;;;;;;;;;;5031287;28;20049;-67
2021/09/28 06:19:59;;;;;;;36.75;18.00;;;;;;;;;;5032700;28;20084;-66
2021/09/28 06:22:25;;;;;;;36.65;17.10;;;;;;;;;;5032971;28;20037;-66
2021/09/28 06:24:55;;;;;;;37.83;18.45;;;;;;;;;;5029566;28;20034;-66
2021/09/28 06:27:22;;;;;;;40.97;17.90;;;;;;;;;;5032916;28;20042;-66
2021/09/28 06:29:48;;;;;;;33.70;18.33;;;;;;;;;;5031212;28;20045;-66
2021/09/28 06:32:16;;;;;;;44.70;17.67;;;;;;;;;;5031048;28;20567;-66
2021/09/28 06:34:43;;;;;;;43.67;18.73;;;;;;;;;;5031623;28;20059;-66
2021/09/28 06:37:09;;;;;;;46.75;18.45;;;;;;;;;;5030706;28;20039;-66
2021/09/28 06:39:35;;;;;;;35.90;17.33;;;;;;;;;;5031120;28;20045;-66
2021/09/28 06:42:01;;;;;;;46.55;18.48;;;;;;;;;;5030542;28;20094;-66
2021/09/28 06:44:28;;;;;;;42.55;18.08;;;;;;;;;;5030933;28;20127;-66
2021/09/28 06:46:54;;;;;;;37.40;18.00;;;;;;;;;;5031116;28;20048;-66
2021/09/28 06:49:21;;;;;;;44.85;18.40;;;;;;;;;;5032081;28;20076;-66
2021/09/28 06:51:47;;;;;;;40.80;18.02;;;;;;;;;;5032233;28;20133;-66
2021/09/28 06:54:13;;;;;;;47.90;18.20;;;;;;;;;;5029093;28;20095;-66
2021/09/28 06:56:41;;;;;;;34.85;19.42;;;;;;;;;;5044065;28;20093;-66
2021/09/28 06:59:10;;;;;;;37.42;17.95;;;;;;;;;;5026126;28;20081;-66
2021/09/28 07:01:36;;;;;;;40.72;17.88;;;;;;;;;;5029238;28;20049;-65
2021/09/28 07:04:03;;;;;;;40.38;18.13;;;;;;;;;;5029436;28;20084;-65
2021/09/28 07:06:29;;;;;;;40.15;18.58;;;;;;;;;;5029445;28;20046;-65
2021/09/28 07:08:56;;;;;;;40.45;18.52;;;;;;;;;;5028034;28;20058;-65
2021/09/28 07:11:22;;;;;;;43.45;19.17;;;;;;;;;;5029726;28;20555;-65
2021/09/28 07:13:48;;;;;;;35.63;17.30;;;;;;;;;;5026936;28;20045;-65
2021/09/28 07:16:15;;;;;;;41.28;18.45;;;;;;;;;;5027099;28;20069;-65
2021/09/28 07:18:41;;;;;;;38.83;17.75;;;;;;;;;;5030399;28;20132;-65
2021/09/28 07:21:07;;;;;;;35.85;16.80;;;;;;;;;;5028616;28;20049;-65
2021/09/28 07:23:33;;;;;;;39.65;17.20;;;;;;;;;;5029718;28;20449;-65
2021/09/28 07:26:00;;;;;;;48.00;17.13;;;;;;;;;;5030132;28;20091;-65
2021/09/28 07:28:26;;;;;;;40.63;17.48;;;;;;;;;;5024668;28;20034;-66
2021/09/28 07:30:53;;;;;;;46.88;19.00;;;;;;;;;;5031871;28;20184;-65
2021/09/28 07:33:19;;;;;;;42.72;17.60;;;;;;;;;;5028133;28;20041;-65
2021/09/28 07:35:45;;;;;;;30.20;16.65;;;;;;;;;;5020761;28;20434;-65
2021/09/28 07:38:12;;;;;;;34.38;15.93;;;;;;;;;;5029177;28;20037;-65
2021/09/28 07:40:39;;;;;;;40.15;14.45;;;;;;;;;;5027732;28;20041;-65
2021/09/28 07:43:06;;;;;;;38.15;15.55;;;;;;;;;;5029591;28;20811;-65
2021/09/28 07:45:32;;;;;;;31.92;15.30;;;;;;;;;;5029615;28;20053;-65
2021/09/28 07:47:58;;;;;;;29.88;14.27;;;;;;;;;;5027679;28;20073;-65
2021/09/28 07:50:24;;;;;;;45.40;15.65;;;;;;;;;;5024669;28;20052;-65
2021/09/28 07:52:51;;;;;;;34.33;13.95;;;;;;;;;;5025733;28;20060;-65
2021/09/28 07:55:17;;;;;;;40.40;15.50;;;;;;;;;;5030426;28;20049;-65
2021/09/28 07:57:43;;;;;;;39.95;14.43;;;;;;;;;;5026238;28;20057;-65
2021/09/28 08:00:10;;;;;;;32.58;13.40;;;;;;;;;;5032874;28;20127;-65
2021/09/28 08:02:38;;;;;;;27.38;12.68;;;;;;;;;;5048906;28;20091;-65
2021/09/28 08:05:05;;;;;;;35.35;14.00;;;;;;;;;;5043315;28;20076;-66
2021/09/28 08:07:31;;;;;;;28.70;12.25;;;;;;;;;;5026803;28;20093;-65
2021/09/28 08:09:57;;;;;;;26.65;13.10;;;;;;;;;;5028725;28;20517;-65
2021/09/28 08:12:23;;;;;;;24.50;12.35;;;;;;;;;;5030735;28;20434;-65
2021/09/28 08:14:49;;;;;;;28.92;12.20;;;;;;;;;;5031562;28;20040;-65
2021/09/28 08:17:16;;;;;;;24.63;11.52;;;;;;;;;;5019748;28;20046;-65
2021/09/28 08:19:43;;;;;;;38.63;13.32;;;;;;;;;;5033312;28;20428;-65
2021/09/28 08:22:11;;;;;;;36.22;14.38;;;;;;;;;;5030135;28;20049;-65
2021/09/28 08:24:42;;;;;;;26.30;12.27;;;;;;;;;;5030802;28;20060;-65
2021/09/28 08:29:53;;;;;;;33.92;12.27;;;;;;;;;;5031566;28;20049;-65
2021/09/28 08:32:19;;;;;;;30.80;13.18;;;;;;;;;;5031073;28;20136;-65
2021/09/28 08:34:46;;;;;;;28.52;11.45;;;;;;;;;;5031280;28;20566;-65
2021/09/28 08:37:13;;;;;;;33.08;11.93;;;;;;;;;;5031454;28;20517;-65
2021/09/28 08:39:39;;;;;;;27.25;9.93;;;;;;;;;;5021714;28;20041;-65
2021/09/28 08:42:05;;;;;;;24.42;10.30;;;;;;;;;;5049197;28;20037;-65
2021/09/28 08:44:31;;;;;;;30.60;10.77;;;;;;;;;;5041276;28;20049;-65
2021/09/28 08:46:58;;;;;;;22.92;10.00;;;;;;;;;;5030711;28;20045;-65
2021/09/28 08:49:24;;;;;;;20.80;9.55;;;;;;;;;;5031246;28;20052;-65
2021/09/28 08:51:51;;;;;;;28.17;11.20;;;;;;;;;;5024398;28;20052;-65
2021/09/28 08:54:17;;;;;;;29.13;10.73;;;;;;;;;;5030658;28;20048;-65
2021/09/28 08:56:44;;;;;;;23.40;10.00;;;;;;;;;;5030980;28;20064;-65
2021/09/28 08:59:13;;;;;;;23.45;9.80;;;;;;;;;;5031778;28;20046;-65
2021/09/28 09:01:52;;;;;;;28.60;10.65;;;;;;;;;;5017758;28;20037;-65
2021/09/28 09:04:20;;;;;;;28.45;10.18;;;;;;;;;;5028810;28;20045;-65
2021/09/28 09:06:46;;;;;;;34.03;9.02;;;;;;;;;;5034779;28;20045;-65
2021/09/28 09:09:13;;;;;;;28.42;9.68;;;;;;;;;;5035163;28;20444;-65
2021/09/28 09:11:41;;;;;;;24.63;8.93;;;;;;;;;;5035033;28;20063;-65
2021/09/28 09:14:20;;;;;;;28.70;10.07;;;;;;;;;;5025218;28;20049;-65
2021/09/28 09:16:47;;;;;;;23.80;8.55;;;;;;;;;;5034591;28;20037;-65
2021/09/28 09:19:19;;;;;;;29.75;8.77;;;;;;;;;;5035057;28;20140;-65
2021/09/28 09:21:48;;;;;;;22.85;8.35;;;;;;;;;;5031684;28;20077;-65
2021/09/28 09:24:34;;;;;;;22.05;7.55;;;;;;;;;;5028107;28;20068;-65
2021/09/28 09:27:00;;;;;;;24.02;8.00;;;;;;;;;;5034656;28;20057;-65
2021/09/28 09:29:26;;;;;;;20.30;8.00;;;;;;;;;;5034151;28;20042;-65
2021/09/28 09:31:54;;;;;;;20.58;7.38;;;;;;;;;;5031124;28;20221;-65
2021/09/28 09:34:22;;;;;;;23.92;7.18;;;;;;;;;;5023193;28;20057;-65
2021/09/28 09:36:58;;;;;;;20.85;6.82;;;;;;;;;;5034538;28;20065;-65
2021/09/28 09:39:26;;;;;;;23.25;7.03;;;;;;;;;;5023476;28;20184;-65
2021/09/28 09:42:04;;;;;;;17.92;7.22;;;;;;;;;;5032706;28;20439;-65
2021/09/28 09:44:31;;;;;;;26.40;7.78;;;;;;;;;;5023125;28;20045;-65
2021/09/28 09:46:59;;;;;;;21.30;6.95;;;;;;;;;;5029488;28;20143;-65
2021/09/28 09:49:27;;;;;;;20.40;6.85;;;;;;;;;;5033800;28;20095;-65
2021/09/28 09:51:54;;;;;;;22.08;6.53;;;;;;;;;;5027609;28;20054;-65
2021/09/28 09:54:36;;;;;;;21.00;6.07;;;;;;;;;;5019985;28;20396;-65
2021/09/28 09:57:04;;;;;;;23.48;5.78;;;;;;;;;;5023646;28;20438;-65
2021/09/28 09:59:31;;;;;;;19.70;5.85;;;;;;;;;;5030136;28;20121;-65
2021/09/28 10:01:57;;;;;;;18.80;4.78;;;;;;;;;;5016358;28;20556;-65
2021/09/28 10:04:24;;;;;;;18.63;4.95;;;;;;;;;;5033390;28;20087;-65
2021/09/28 10:06:51;;;;;;;26.52;5.50;;;;;;;;;;5033819;28;20050;-64
2021/09/28 10:09:20;;;;;;;18.95;5.15;;;;;;;;;;5026688;28;20489;-64
2021/09/28 10:11:50;;;;;;;15.50;5.03;;;;;;;;;;5017529;28;20132;-65
2021/09/28 10:14:34;;;;;;;17.00;4.20;;;;;;;;;;5025627;28;20049;-65
2021/09/28 10:17:01;;;;;;;14.65;4.50;;;;;;;;;;5033313;28;20099;-65
2021/09/28 10:19:28;;;;;;;17.77;4.05;;;;;;;;;;5033527;28;20499;-65
2021/09/28 10:21:55;;;;;;;19.05;4.35;;;;;;;;;;5033857;28;20049;-65
2021/09/28 10:24:21;;;;;;;18.95;4.55;;;;;;;;;;5033372;28;20152;-64
2021/09/28 10:27:07;;;;;;;14.48;3.78;;;;;;;;;;5033250;28;20048;-65
2021/09/28 10:29:42;;;;;;;22.58;4.93;;;;;;;;;;5039892;28;20041;-65
2021/09/28 10:32:21;;;;;;;13.38;3.88;;;;;;;;;;5020960;28;20037;-65
2021/09/28 10:35:05;;;;;;;17.00;4.50;;;;;;;;;;5024405;28;20053;-65
2021/09/28 10:37:43;;;;;;;16.17;4.03;;;;;;;;;;5053374;28;20075;-65
2021/09/28 10:40:29;;;;;;;16.08;3.58;;;;;;;;;;5051561;28;20485;-65
2021/09/28 10:42:58;;;;;;;16.58;4.60;;;;;;;;;;5052127;28;20472;-65
2021/09/28 10:45:29;;;;;;;21.23;4.32;;;;;;;;;;5033662;28;20852;-64
2021/09/28 10:47:55;;;;;;;16.08;3.65;;;;;;;;;;5052324;28;20037;-65
2021/09/28 10:50:22;;;;;;;10.50;2.92;;;;;;;;;;5052053;28;20546;-64
2021/09/28 10:52:49;;;;;;;18.33;3.75;;;;;;;;;;5051545;28;20053;-65
2021/09/28 10:55:16;;;;;;;15.60;3.88;;;;;;;;;;5030871;28;20063;-65
2021/09/28 10:57:55;;;;;;;14.77;3.17;;;;;;;;;;5049281;28;20063;-65
2021/09/28 11:00:21;;;;;;;17.85;4.15;;;;;;;;;;5048369;28;20045;-64
2021/09/28 11:02:58;;;;;;;11.65;2.40;;;;;;;;;;5047644;28;20041;-65
2021/09/28 11:05:29;;;;;;;10.85;2.85;;;;;;;;;;5050950;28;20194;-65
2021/09/28 11:07:55;;;;;;;12.52;3.03;;;;;;;;;;5032909;28;20079;-64
2021/09/28 11:10:22;;;;;;;13.32;2.92;;;;;;;;;;5050473;28;20507;-64
2021/09/28 11:12:48;;;;;;;12.60;2.85;;;;;;;;;;5048479;28;20132;-65
2021/09/28 11:15:21;;;;;;;13.13;2.67;;;;;;;;;;5032564;28;20512;-65
2021/09/28 11:17:47;;;;;;;15.75;3.28;;;;;;;;;;5050195;28;20512;-64
2021/09/28 11:20:25;;;;;;;11.77;2.47;;;;;;;;;;5033406;28;20400;-64
2021/09/28 11:22:55;;;;;;;11.93;2.20;;;;;;;;;;5051080;28;20376;-64
2021/09/28 11:25:21;;;;;;;13.57;1.75;;;;;;;;;;5049686;28;20037;-64
2021/09/28 11:28:01;;;;;;;13.05;2.28;;;;;;;;;;5050016;28;20119;-64
2021/09/28 11:30:28;;;;;;;17.88;2.20;;;;;;;;;;5048680;28;20053;-64
2021/09/28 11:33:00;;;;;;;10.40;2.25;;;;;;;;;;5048292;28;20369;-64
2021/09/28 11:35:27;;;;;;;13.70;3.05;;;;;;;;;;5049362;28;20511;-64
2021/09/28 11:37:54;;;;;;;14.13;2.53;;;;;;;;;;5051209;28;20033;-64
2021/09/28 11:40:20;;;;;;;12.10;2.45;;;;;;;;;;5051027;28;20124;-65
2021/09/28 11:42:46;;;;;;;15.38;2.63;;;;;;;;;;5050554;28;20041;-64
2021/09/28 11:45:12;;;;;;;7.70;2.03;;;;;;;;;;5051089;28;20049;-65
2021/09/28 11:47:42;;;;;;;11.63;1.88;;;;;;;;;;5051395;28;20124;-64
2021/09/28 11:50:08;;;;;;;14.50;2.38;;;;;;;;;;5032238;28;20500;-64
2021/09/28 11:52:35;;;;;;;9.55;2.38;;;;;;;;;;5051448;28;20041;-64
2021/09/28 11:55:01;;;;;;;11.20;2.63;;;;;;;;;;5049674;28;20041;-64
2021/09/28 11:57:29;;;;;;;12.00;3.17;;;;;;;;;;5049972;28;20174;-65
2021/09/28 11:59:56;;;;;;;13.77;2.50;;;;;;;;;;5049091;28;20044;-64
2021/09/28 12:02:23;;;;;;;16.23;3.13;;;;;;;;;;5028840;28;20120;-65
2021/09/28 12:05:23;;;;;;;7.45;1.92;;;;;;;;;;5046678;28;20057;-64
2021/09/28 12:10:14;;;;;;;13.68;2.72;;;;;;;;;;5046780;28;20053;-65
2021/09/28 12:12:41;;;;;;;10.85;2.42;;;;;;;;;;5049001;28;20041;-65
2021/09/28 12:15:08;;;;;;;6.72;2.00;;;;;;;;;;5050664;28;20060;-65
2021/09/28 12:17:38;;;;;;;9.75;1.98;;;;;;;;;;5045530;28;20067;-65
2021/09/28 12:20:07;;;;;;;9.05;2.20;;;;;;;;;;5029739;28;20059;-65
2021/09/28 12:22:35;;;;;;;10.93;2.15;;;;;;;;;;5047552;28;20033;-65
2021/09/28 12:25:03;;;;;;;10.05;2.55;;;;;;;;;;5046562;28;20115;-65
2021/09/28 12:27:29;;;;;;;10.32;1.85;;;;;;;;;;5045324;28;20052;-65
2021/09/28 12:29:57;;;;;;;11.43;2.35;;;;;;;;;;5032781;28;20132;-65
2021/09/28 12:32:29;;;;;;;12.50;2.63;;;;;;;;;;5050077;28;20037;-65
2021/09/28 12:34:56;;;;;;;11.23;2.10;;;;;;;;;;5048724;28;20032;-65
2021/09/28 12:37:23;;;;;;;13.25;1.98;;;;;;;;;;5050279;28;20041;-65
2021/09/28 12:40:04;;;;;;;8.13;1.85;;;;;;;;;;5050344;28;20048;-64
2021/09/28 12:42:31;;;;;;;10.70;2.33;;;;;;;;;;5031950;28;20037;-65
2021/09/28 12:44:59;;;;;;;16.92;2.58;;;;;;;;;;5048720;28;20049;-65
2021/09/28 12:47:26;;;;;;;12.73;2.78;;;;;;;;;;5048975;28;20127;-65
2021/09/28 12:49:53;;;;;;;10.55;2.05;;;;;;;;;;5049215;28;20049;-65
2021/09/28 12:52:19;;;;;;;11.85;2.20;;;;;;;;;;5048735;28;20048;-65
2021/09/28 12:54:45;;;;;;;9.55;2.25;;;;;;;;;;5049540;28;20150;-64
2021/09/28 12:57:14;;;;;;;10.88;2.55;;;;;;;;;;5048662;28;20082;-65
2021/09/28 12:59:42;;;;;;;12.23;2.67;;;;;;;;;;5026900;28;20137;-65
2021/09/28 13:02:09;;;;;;;12.48;2.17;;;;;;;;;;5030838;28;20503;-64
2021/09/28 13:04:37;;;;;;;12.35;2.72;;;;;;;;;;5047406;28;20397;-65
2021/09/28 13:07:08;;;;;;;16.88;2.75;;;;;;;;;;5047986;28;20033;-64
2021/09/28 13:09:34;;;;;;;13.32;2.78;;;;;;;;;;5029735;28;20053;-64
2021/09/28 13:12:01;;;;;;;13.57;2.65;;;;;;;;;;5029447;28;20038;-65
2021/09/28 13:14:28;;;;;;;13.30;2.58;;;;;;;;;;5048619;28;20110;-64
2021/09/28 13:16:57;;;;;;;12.57;2.65;;;;;;;;;;5045422;28;20064;-64
2021/09/28 13:19:23;;;;;;;13.73;3.17;;;;;;;;;;5048698;28;20512;-64
2021/09/28 13:21:49;;;;;;;10.82;2.08;;;;;;;;;;5042048;28;20758;-64
2021/09/28 13:24:15;;;;;;;14.82;2.40;;;;;;;;;;5047303;28;20051;-64
2021/09/28 13:26:42;;;;;;;14.43;2.35;;;;;;;;;;5047170;28;20136;-65
2021/09/28 13:29:08;;;;;;;10.65;2.25;;;;;;;;;;5048007;28;20106;-64
2021/09/28 13:31:34;;;;;;;10.43;1.88;;;;;;;;;;5029885;28;20045;-65
2021/09/28 13:34:01;;;;;;;9.90;2.30;;;;;;;;;;5016688;28;20420;-65
2021/09/28 13:36:27;;;;;;;8.57;2.22;;;;;;;;;;5030989;28;20053;-65
2021/09/28 13:38:53;;;;;;;9.45;1.77;;;;;;;;;;5030705;28;20531;-66
2021/09/28 13:41:20;;;;;;;9.45;2.10;;;;;;;;;;5020901;28;20045;-66
2021/09/28 13:43:46;;;;;;;8.05;2.17;;;;;;;;;;5027125;28;20102;-65
2021/09/28 13:46:12;;;;;;;13.88;2.30;;;;;;;;;;5033667;28;20123;-66
2021/09/28 13:48:39;;;;;;;8.90;1.38;;;;;;;;;;5028469;28;20048;-66
2021/09/28 13:51:05;;;;;;;17.75;2.35;;;;;;;;;;5034655;28;20137;-65
2021/09/28 13:53:31;;;;;;;12.10;1.98;;;;;;;;;;5034209;28;20045;-65
2021/09/28 13:55:57;;;;;;;9.27;1.98;;;;;;;;;;5028366;28;20489;-65
2021/09/28 13:58:23;;;;;;;12.43;2.38;;;;;;;;;;5034249;28;20393;-65
2021/09/28 14:00:50;;;;;;;10.57;1.80;;;;;;;;;;5028849;28;20465;-66
2021/09/28 14:03:16;;;;;;;10.27;2.10;;;;;;;;;;5048960;28;20091;-66
2021/09/28 14:05:42;;;;;;;12.50;2.25;;;;;;;;;;5050116;28;20493;-66
2021/09/28 14:08:08;;;;;;;12.02;2.42;;;;;;;;;;5050286;28;20392;-65
2021/09/28 14:10:34;;;;;;;12.98;2.75;;;;;;;;;;5033723;28;20431;-65
2021/09/28 14:13:01;;;;;;;12.55;2.42;;;;;;;;;;5045935;28;20029;-65
2021/09/28 14:15:27;;;;;;;13.77;1.98;;;;;;;;;;5033282;28;20354;-66
2021/09/28 14:17:53;;;;;;;12.40;2.50;;;;;;;;;;5050046;28;20063;-65
2021/09/28 14:20:19;;;;;;;11.38;2.50;;;;;;;;;;5048202;28;20041;-65
2021/09/28 14:22:45;;;;;;;12.02;2.58;;;;;;;;;;5048302;28;20037;-65
2021/09/28 14:25:12;;;;;;;14.73;2.63;;;;;;;;;;5049193;28;20077;-65
2021/09/28 14:27:38;;;;;;;14.07;2.40;;;;;;;;;;5049659;28;20043;-66
2021/09/28 14:30:06;;;;;;;21.60;3.85;;;;;;;;;;5047574;28;20049;-66